Time;durP1;ratioP1;P1;durP2;ratioP2;P2;SDS_P1;SDS_P2;PMS_P1;PMS_P2;Temp;Humidity;BMP_temperature;BMP_pressure;BME280_temperature;BME280_humidity;BME280_pressure;Samples;Min_cycle;Max_cycle;Signal;HPM_P1;HPM_P2
2021/12/15 00:01:35;;;;;;;63.05;26.63;;;11.40;99.90;;;;;;5005149;28;20116;-83
2021/12/15 00:04:02;;;;;;;57.00;26.45;;;11.30;99.90;;;;;;5002596;28;20099;-83
2021/12/15 00:06:31;;;;;;;61.28;25.45;;;11.30;99.90;;;;;;4997966;28;20416;-83
2021/12/15 00:08:59;;;;;;;61.65;26.50;;;11.30;99.90;;;;;;5014882;28;20516;-83
2021/12/15 00:11:35;;;;;;;59.67;26.60;;;11.30;99.90;;;;;;5015192;28;20464;-83
2021/12/15 00:14:07;;;;;;;58.22;26.23;;;11.30;99.90;;;;;;5003380;28;20595;-82
2021/12/15 00:16:33;;;;;;;52.17;24.92;;;11.40;99.90;;;;;;5000978;28;20042;-83
2021/12/15 00:18:59;;;;;;;60.83;25.45;;;11.30;99.90;;;;;;5001942;28;20035;-83
2021/12/15 00:21:25;;;;;;;57.50;25.13;;;11.30;99.90;;;;;;4997365;28;20076;-83
2021/12/15 00:23:51;;;;;;;55.75;26.52;;;11.30;99.90;;;;;;5001183;28;20083;-83
2021/12/15 00:26:17;;;;;;;55.72;26.15;;;11.30;99.90;;;;;;5015536;28;20048;-83
2021/12/15 00:28:43;;;;;;;56.65;26.70;;;11.20;99.90;;;;;;5017992;28;20034;-83
2021/12/15 00:31:10;;;;;;;57.40;25.48;;;11.20;99.90;;;;;;5002592;28;20033;-84
2021/12/15 00:33:37;;;;;;;58.00;26.15;;;11.20;99.90;;;;;;5020156;28;20505;-83
2021/12/15 00:36:07;;;;;;;58.83;26.80;;;11.20;99.90;;;;;;5017839;28;20098;-83
2021/12/15 00:38:33;;;;;;;60.85;25.85;;;11.30;99.90;;;;;;5019407;28;20223;-83
2021/12/15 00:40:59;;;;;;;55.80;26.65;;;11.20;99.90;;;;;;5005634;28;20068;-84
2021/12/15 00:43:26;;;;;;;57.28;26.63;;;11.20;99.90;;;;;;5031465;28;20061;-83
2021/12/15 00:45:52;;;;;;;55.05;25.17;;;11.20;99.90;;;;;;5005171;28;20453;-83
2021/12/15 00:48:18;;;;;;;49.72;26.20;;;11.20;99.90;;;;;;5001720;28;20111;-84
2021/12/15 00:50:46;;;;;;;49.50;25.95;;;11.20;99.90;;;;;;5035025;28;20030;-83
2021/12/15 00:53:13;;;;;;;50.97;25.55;;;11.20;99.90;;;;;;5020625;28;20536;-83
2021/12/15 00:55:39;;;;;;;52.60;26.85;;;11.20;99.90;;;;;;5006127;28;20041;-83
2021/12/15 00:58:06;;;;;;;56.85;27.13;;;11.20;99.90;;;;;;5021997;28;20128;-83
2021/12/15 01:00:39;;;;;;;46.95;26.23;;;11.20;99.90;;;;;;5021015;28;20124;-83
2021/12/15 01:03:06;;;;;;;52.97;25.88;;;11.20;99.90;;;;;;5001208;28;20571;-83
2021/12/15 01:05:35;;;;;;;49.40;25.02;;;11.20;99.90;;;;;;5033847;28;20085;-84
2021/12/15 01:08:05;;;;;;;55.10;25.20;;;11.20;99.90;;;;;;5022063;28;20148;-83
2021/12/15 01:10:45;;;;;;;54.08;25.42;;;11.20;99.90;;;;;;5002582;28;20124;-84
2021/12/15 01:21:15;;;;;;;54.67;26.10;;;11.30;99.90;;;;;;5012258;28;20111;-83
2021/12/15 01:23:41;;;;;;;48.88;25.92;;;11.20;99.90;;;;;;5021849;28;20459;-83
2021/12/15 01:26:10;;;;;;;44.55;24.52;;;11.30;99.90;;;;;;5003857;28;20072;-84
2021/12/15 01:28:39;;;;;;;55.08;26.55;;;11.30;99.90;;;;;;5004720;28;20044;-83
2021/12/15 01:31:08;;;;;;;54.67;26.70;;;11.30;99.90;;;;;;5006067;28;20552;-84
2021/12/15 01:33:38;;;;;;;52.60;26.50;;;11.30;99.90;;;;;;5011403;28;20504;-83
2021/12/15 01:36:05;;;;;;;54.38;28.08;;;11.30;99.90;;;;;;5021127;28;20069;-83
2021/12/15 01:38:33;;;;;;;53.13;27.80;;;11.30;99.90;;;;;;5020975;28;20684;-83
2021/12/15 01:41:00;;;;;;;60.55;28.13;;;11.30;99.90;;;;;;5020132;28;20049;-84
2021/12/15 01:48:59;;;;;;;54.47;26.52;;;11.30;99.90;;;;;;5026266;28;20057;-83
2021/12/15 01:51:24;;;;;;;50.05;26.60;;;11.30;99.90;;;;;;5015895;28;20053;-83
2021/12/15 01:53:50;;;;;;;54.78;26.45;;;11.30;99.90;;;;;;5035666;28;20400;-83
2021/12/15 01:56:16;;;;;;;62.55;27.20;;;11.30;99.90;;;;;;5019591;28;20057;-83
2021/12/15 01:58:42;;;;;;;55.10;25.33;;;11.30;99.90;;;;;;5002609;28;20478;-83
2021/12/15 02:01:10;;;;;;;51.17;26.38;;;11.40;99.90;;;;;;5003961;28;20590;-83
2021/12/15 02:03:38;;;;;;;51.33;26.73;;;11.30;99.90;;;;;;5006010;28;20036;-83
2021/12/15 02:06:07;;;;;;;58.65;27.60;;;11.40;99.90;;;;;;5015049;28;20042;-83
2021/12/15 02:08:32;;;;;;;56.38;26.35;;;11.40;99.90;;;;;;5020628;28;20045;-84
2021/12/15 02:10:58;;;;;;;58.95;28.17;;;11.30;99.90;;;;;;5004093;28;20079;-83
2021/12/15 02:13:25;;;;;;;57.80;28.27;;;11.40;99.90;;;;;;5003026;28;20072;-83
2021/12/15 02:15:54;;;;;;;58.55;27.85;;;11.30;99.90;;;;;;5006297;28;20041;-83
2021/12/15 02:18:25;;;;;;;51.60;27.92;;;11.30;99.90;;;;;;5019083;28;20128;-83
2021/12/15 02:21:13;;;;;;;55.42;27.70;;;11.40;99.90;;;;;;5004666;28;20037;-84
2021/12/15 02:23:45;;;;;;;56.53;27.42;;;11.30;99.90;;;;;;5019184;28;20037;-83
2021/12/15 02:26:16;;;;;;;54.90;28.45;;;11.40;99.90;;;;;;5002792;28;20088;-83
2021/12/15 02:28:46;;;;;;;56.00;28.10;;;11.40;99.90;;;;;;5035788;28;20393;-83
2021/12/15 02:33:50;;;;;;;56.13;29.67;;;11.40;99.90;;;;;;5018813;28;20192;-83
2021/12/15 02:39:15;;;;;;;56.67;27.73;;;11.30;99.90;;;;;;4978150;28;20570;-83
2021/12/15 02:41:42;;;;;;;56.03;27.45;;;11.40;99.90;;;;;;5000853;28;20029;-84
2021/12/15 02:44:17;;;;;;;60.88;28.02;;;11.40;99.90;;;;;;5003294;28;20576;-83
2021/12/15 02:46:47;;;;;;;57.72;28.70;;;11.40;99.90;;;;;;5003550;28;20139;-83
2021/12/15 02:49:17;;;;;;;59.40;29.67;;;11.40;99.90;;;;;;5020027;28;20544;-83
2021/12/15 02:51:46;;;;;;;58.47;29.67;;;11.40;99.90;;;;;;5015978;28;20385;-83
2021/12/15 02:54:13;;;;;;;60.80;28.60;;;11.40;99.90;;;;;;5017122;28;20088;-83
2021/12/15 02:56:44;;;;;;;60.63;31.25;;;11.40;99.90;;;;;;5000978;28;20069;-83
2021/12/15 02:59:12;;;;;;;54.35;28.83;;;11.30;99.90;;;;;;5014910;28;20041;-83
2021/12/15 03:07:17;;;;;;;59.35;29.42;;;11.30;99.90;;;;;;5030698;28;20103;-84
2021/12/15 03:17:58;;;;;;;60.72;29.92;;;11.30;99.90;;;;;;5020198;28;20083;-84
2021/12/15 03:20:25;;;;;;;60.38;29.80;;;11.20;99.90;;;;;;5031328;28;20134;-83
2021/12/15 03:22:51;;;;;;;52.17;29.45;;;11.30;99.90;;;;;;5004662;28;20096;-83
2021/12/15 03:25:17;;;;;;;62.38;29.98;;;11.30;99.90;;;;;;5016511;28;20430;-83
2021/12/15 03:36:04;;;;;;;65.30;31.90;;;11.20;99.90;;;;;;5023508;28;20416;-83
2021/12/15 03:38:30;;;;;;;62.45;30.58;;;11.20;99.90;;;;;;5017585;28;20041;-84
2021/12/15 03:40:56;;;;;;;68.32;33.08;;;11.30;99.90;;;;;;5015067;28;20122;-83
2021/12/15 03:43:22;;;;;;;62.13;30.67;;;11.20;99.90;;;;;;5001728;28;20045;-83
2021/12/15 03:45:55;;;;;;;63.45;31.30;;;11.20;99.90;;;;;;5003869;28;20563;-83
2021/12/15 03:48:27;;;;;;;68.38;32.20;;;11.30;99.90;;;;;;5015049;28;20049;-84
2021/12/15 03:50:56;;;;;;;60.67;30.60;;;11.20;99.90;;;;;;5000218;28;20044;-84
2021/12/15 03:53:23;;;;;;;64.57;30.95;;;11.20;99.90;;;;;;5018062;28;20091;-84
2021/12/15 03:55:49;;;;;;;65.13;31.23;;;11.20;99.90;;;;;;5016377;28;20049;-83
2021/12/15 03:58:16;;;;;;;61.65;32.00;;;11.20;99.90;;;;;;5021007;28;20570;-84
2021/12/15 04:00:53;;;;;;;62.25;30.75;;;11.20;99.90;;;;;;5015814;28;20046;-83
2021/12/15 04:03:21;;;;;;;61.25;31.00;;;11.20;99.90;;;;;;5026290;28;20053;-83
2021/12/15 04:05:47;;;;;;;64.38;30.65;;;11.20;99.90;;;;;;4999956;28;20084;-84
2021/12/15 04:08:14;;;;;;;63.60;29.88;;;11.20;99.90;;;;;;5016528;28;20076;-84
2021/12/15 04:10:39;;;;;;;70.10;30.08;;;11.20;99.90;;;;;;5000682;28;20235;-83
2021/12/15 04:13:05;;;;;;;67.32;30.33;;;11.20;99.90;;;;;;5001928;28;20037;-83
2021/12/15 04:15:42;;;;;;;66.82;30.90;;;11.20;99.90;;;;;;5001397;28;20533;-83
2021/12/15 04:18:09;;;;;;;69.32;32.08;;;11.10;99.90;;;;;;5002338;28;20132;-84
2021/12/15 04:20:37;;;;;;;70.90;31.65;;;11.20;99.90;;;;;;5014739;28;20046;-84
2021/12/15 04:23:06;;;;;;;66.65;31.00;;;11.20;99.90;;;;;;5033963;28;20045;-83
2021/12/15 04:25:34;;;;;;;68.25;30.98;;;11.20;99.90;;;;;;5014012;28;20041;-84
2021/12/15 04:28:01;;;;;;;72.03;31.85;;;11.20;99.90;;;;;;5017233;28;20046;-84
2021/12/15 04:30:31;;;;;;;62.22;32.45;;;11.10;99.90;;;;;;5018041;28;20041;-83
2021/12/15 04:32:59;;;;;;;69.13;32.05;;;11.10;99.90;;;;;;5033627;28;20477;-83
2021/12/15 04:35:26;;;;;;;72.13;32.03;;;11.10;99.90;;;;;;4998357;28;20076;-83
2021/12/15 04:37:52;;;;;;;68.78;31.73;;;11.10;99.90;;;;;;5000078;28;20052;-83
2021/12/15 04:40:20;;;;;;;65.38;31.13;;;11.10;99.90;;;;;;4997534;28;20072;-83
2021/12/15 04:42:46;;;;;;;62.88;31.63;;;11.20;99.90;;;;;;5015805;28;20108;-83
2021/12/15 04:45:16;;;;;;;66.15;31.08;;;11.20;99.90;;;;;;5000084;28;20137;-83
2021/12/15 04:47:42;;;;;;;62.80;30.65;;;11.10;99.90;;;;;;5016868;28;20042;-83
2021/12/15 04:50:09;;;;;;;64.28;30.13;;;11.10;99.90;;;;;;4999919;28;20040;-83
2021/12/15 04:52:35;;;;;;;64.93;31.63;;;11.10;99.90;;;;;;5004912;28;20041;-83
2021/12/15 04:55:03;;;;;;;67.00;30.58;;;11.10;99.90;;;;;;5015158;28;20046;-83
2021/12/15 04:57:29;;;;;;;68.95;31.77;;;11.10;99.90;;;;;;5015337;28;20169;-83
2021/12/15 04:59:56;;;;;;;63.83;31.33;;;11.10;99.90;;;;;;5033181;28;20060;-83
2021/12/15 05:02:23;;;;;;;71.03;31.38;;;11.10;99.90;;;;;;4997258;28;20042;-83
2021/12/15 05:04:50;;;;;;;64.05;31.73;;;11.10;99.90;;;;;;5013986;28;20041;-84
2021/12/15 05:07:17;;;;;;;70.72;31.10;;;11.10;99.90;;;;;;5001125;28;20045;-83
2021/12/15 05:09:50;;;;;;;66.70;30.90;;;11.00;99.90;;;;;;5032462;28;20065;-83
2021/12/15 05:12:17;;;;;;;63.80;31.42;;;11.00;99.90;;;;;;5015123;28;20583;-82
2021/12/15 05:14:43;;;;;;;57.80;31.17;;;11.00;99.90;;;;;;5018067;28;20380;-83
2021/12/15 05:17:09;;;;;;;68.50;31.60;;;11.10;99.90;;;;;;4999787;28;20034;-83
2021/12/15 05:19:35;;;;;;;64.82;31.25;;;11.00;99.90;;;;;;4999934;28;20475;-83
2021/12/15 05:22:04;;;;;;;60.03;29.38;;;11.10;99.90;;;;;;5031924;28;20048;-83
2021/12/15 05:24:30;;;;;;;63.22;30.58;;;11.00;99.90;;;;;;4999216;28;20048;-83
2021/12/15 05:27:11;;;;;;;61.78;31.13;;;11.10;99.90;;;;;;5004646;28;20131;-83
2021/12/15 05:29:38;;;;;;;64.55;31.33;;;11.10;99.90;;;;;;5019772;28;20061;-83
2021/12/15 05:32:05;;;;;;;66.65;32.05;;;11.10;99.90;;;;;;5022076;28;20092;-83
2021/12/15 05:34:31;;;;;;;62.17;29.83;;;11.00;99.90;;;;;;5018829;28;20227;-83
2021/12/15 05:36:57;;;;;;;59.88;30.08;;;11.10;99.90;;;;;;5001767;28;20045;-83
2021/12/15 05:39:25;;;;;;;65.85;30.80;;;11.00;99.90;;;;;;5006140;28;20099;-83
2021/12/15 05:41:52;;;;;;;61.95;30.85;;;11.00;99.90;;;;;;5020057;28;20041;-83
2021/12/15 05:44:18;;;;;;;67.57;32.42;;;11.10;99.90;;;;;;4999407;28;20110;-83
2021/12/15 05:46:48;;;;;;;67.28;29.77;;;11.10;99.90;;;;;;5021634;28;20114;-83
2021/12/15 05:49:14;;;;;;;66.75;31.08;;;11.10;99.90;;;;;;5018887;28;20042;-83
2021/12/15 05:51:42;;;;;;;60.75;30.83;;;11.00;99.90;;;;;;5014652;28;20090;-82
2021/12/15 05:54:09;;;;;;;64.82;30.95;;;11.00;99.90;;;;;;5000290;28;20045;-83
2021/12/15 05:56:35;;;;;;;64.82;32.00;;;11.10;99.90;;;;;;5004863;28;20041;-84
2021/12/15 05:59:05;;;;;;;62.28;29.95;;;11.10;99.90;;;;;;5003350;28;20479;-83
2021/12/15 06:01:31;;;;;;;69.85;32.13;;;11.10;99.90;;;;;;5005018;28;20362;-83
2021/12/15 06:03:57;;;;;;;66.95;31.42;;;11.10;99.90;;;;;;5005686;28;20037;-83
2021/12/15 06:06:23;;;;;;;61.30;30.15;;;11.10;99.90;;;;;;5002393;28;20067;-83
2021/12/15 06:08:49;;;;;;;64.13;30.10;;;11.10;99.90;;;;;;5005576;28;20115;-82
2021/12/15 06:11:15;;;;;;;64.22;30.63;;;11.10;99.90;;;;;;5020289;28;20514;-83
2021/12/15 06:13:42;;;;;;;69.10;33.05;;;11.10;99.90;;;;;;5020025;28;20473;-83
2021/12/15 06:16:10;;;;;;;61.00;30.00;;;11.10;99.90;;;;;;5003603;28;20033;-84
2021/12/15 06:18:35;;;;;;;64.75;31.38;;;11.00;99.90;;;;;;5011329;28;20095;-83
2021/12/15 06:21:01;;;;;;;56.53;29.58;;;11.00;99.90;;;;;;4998875;28;20033;-83
2021/12/15 06:23:28;;;;;;;64.90;30.90;;;11.10;99.90;;;;;;5005195;28;20643;-83
2021/12/15 06:26:02;;;;;;;64.47;31.08;;;11.00;99.90;;;;;;5003765;28;20041;-83
2021/12/15 06:28:30;;;;;;;62.88;29.98;;;11.00;99.90;;;;;;5002668;28;20427;-83
2021/12/15 06:30:58;;;;;;;57.40;28.60;;;11.00;99.90;;;;;;5004260;28;20045;-83
2021/12/15 06:33:25;;;;;;;60.75;29.58;;;11.00;99.90;;;;;;5020167;28;20615;-83
2021/12/15 06:35:57;;;;;;;62.53;30.70;;;11.00;99.90;;;;;;5033817;28;20108;-83
2021/12/15 06:38:29;;;;;;;61.60;29.27;;;11.00;99.90;;;;;;5003782;28;20044;-83
2021/12/15 06:40:55;;;;;;;61.40;29.70;;;11.00;99.90;;;;;;5018687;28;20041;-83
2021/12/15 06:43:22;;;;;;;58.15;30.13;;;11.00;99.90;;;;;;5015329;28;20920;-83
2021/12/15 06:46:28;;;;;;;60.78;29.92;;;11.00;99.90;;;;;;5002988;28;20465;-83
2021/12/15 06:59:37;;;;;;;56.75;29.75;;;11.00;99.90;;;;;;5029782;28;20119;-82
2021/12/15 07:02:04;;;;;;;52.63;27.77;;;11.00;99.90;;;;;;5017331;28;20509;-83
2021/12/15 07:04:29;;;;;;;54.85;27.30;;;11.00;99.90;;;;;;5003618;28;20511;-82
2021/12/15 07:06:56;;;;;;;54.47;28.85;;;11.00;99.90;;;;;;5012380;28;20033;-83
2021/12/15 07:09:22;;;;;;;55.10;28.05;;;11.00;99.90;;;;;;5021027;28;20310;-83
2021/12/15 07:11:50;;;;;;;60.55;27.90;;;11.00;99.90;;;;;;5003931;28;20069;-83
2021/12/15 07:14:17;;;;;;;54.22;27.80;;;11.00;99.90;;;;;;5033937;28;20033;-83
2021/12/15 07:16:46;;;;;;;61.38;28.45;;;11.00;99.90;;;;;;5016486;28;20295;-83
2021/12/15 07:19:20;;;;;;;56.70;28.70;;;11.00;99.90;;;;;;5001844;28;20044;-82
2021/12/15 07:22:05;;;;;;;56.97;28.20;;;11.00;99.90;;;;;;5016682;28;20043;-83
2021/12/15 07:24:32;;;;;;;57.70;28.17;;;11.00;99.90;;;;;;5018230;28;20401;-83
2021/12/15 07:26:59;;;;;;;52.83;27.80;;;11.00;99.90;;;;;;5001590;28;20103;-83
2021/12/15 07:29:29;;;;;;;54.30;26.23;;;11.00;99.90;;;;;;5003691;28;20037;-83
2021/12/15 07:31:55;;;;;;;50.50;27.00;;;11.00;99.90;;;;;;5018979;28;20034;-83
2021/12/15 07:34:21;;;;;;;50.42;26.60;;;11.00;99.90;;;;;;5017894;28;20112;-83
2021/12/15 07:36:47;;;;;;;52.75;26.85;;;11.00;99.90;;;;;;5033755;28;20087;-83
2021/12/15 07:39:15;;;;;;;54.33;28.30;;;11.00;99.90;;;;;;5003037;28;20044;-83
2021/12/15 07:41:51;;;;;;;54.40;26.60;;;11.00;99.90;;;;;;5018936;28;20477;-83
2021/12/15 07:44:19;;;;;;;53.42;26.75;;;11.00;99.90;;;;;;5019928;28;20037;-83
2021/12/15 07:46:46;;;;;;;50.65;25.83;;;11.00;99.90;;;;;;5002064;28;20033;-83
2021/12/15 07:49:13;;;;;;;49.25;25.67;;;11.00;99.90;;;;;;5021331;28;20393;-82
2021/12/15 07:51:43;;;;;;;46.95;26.02;;;11.00;99.90;;;;;;5015227;28;20030;-83
2021/12/15 07:54:09;;;;;;;48.10;25.23;;;11.00;99.90;;;;;;5017815;28;20512;-83
2021/12/15 07:56:35;;;;;;;46.22;26.08;;;11.00;99.90;;;;;;5015353;28;20421;-84
2021/12/15 07:59:02;;;;;;;46.47;24.58;;;11.00;99.90;;;;;;5002823;28;20044;-83
2021/12/15 08:01:28;;;;;;;37.72;21.35;;;11.10;99.90;;;;;;5020143;28;20046;-83
2021/12/15 08:03:55;;;;;;;33.60;20.33;;;11.00;99.90;;;;;;5006539;28;20052;-83
2021/12/15 08:06:26;;;;;;;42.75;21.77;;;11.00;99.90;;;;;;5003721;28;20041;-83
2021/12/15 08:08:53;;;;;;;38.67;22.38;;;11.00;99.90;;;;;;5005010;28;20034;-83
2021/12/15 08:11:19;;;;;;;42.97;22.48;;;11.00;99.90;;;;;;5005798;28;20040;-83
2021/12/15 08:13:48;;;;;;;37.03;21.23;;;11.00;99.90;;;;;;5004895;28;20029;-84
2021/12/15 08:16:14;;;;;;;37.83;20.63;;;11.00;99.90;;;;;;5004144;28;20597;-83
2021/12/15 08:18:43;;;;;;;34.67;19.33;;;11.00;99.90;;;;;;5006410;28;20076;-83
2021/12/15 08:21:09;;;;;;;37.67;21.40;;;11.00;99.90;;;;;;5021083;28;20041;-83
2021/12/15 08:23:35;;;;;;;37.75;20.88;;;11.00;99.90;;;;;;5022837;28;20046;-83
2021/12/15 08:26:01;;;;;;;37.72;20.98;;;11.00;99.90;;;;;;5005155;28;20038;-83
2021/12/15 08:28:27;;;;;;;38.40;20.05;;;11.00;99.90;;;;;;5003092;28;20113;-83
2021/12/15 08:30:54;;;;;;;39.20;20.83;;;10.90;99.90;;;;;;5007395;28;20041;-83
2021/12/15 08:33:29;;;;;;;37.72;21.80;;;10.90;99.90;;;;;;5036387;28;20408;-83
2021/12/15 08:36:05;;;;;;;41.97;21.48;;;11.00;99.90;;;;;;5019935;28;20045;-83
2021/12/15 08:38:35;;;;;;;41.05;21.52;;;11.00;99.90;;;;;;5023587;28;20044;-83
2021/12/15 08:41:05;;;;;;;40.67;20.77;;;11.00;99.90;;;;;;5007844;28;20107;-83
2021/12/15 08:43:31;;;;;;;38.97;20.75;;;11.00;99.90;;;;;;5023794;28;20246;-83
2021/12/15 08:46:04;;;;;;;40.25;21.15;;;11.00;99.90;;;;;;5006143;28;20264;-83
2021/12/15 08:48:30;;;;;;;41.33;19.77;;;11.00;99.90;;;;;;5021678;28;20133;-83
2021/12/15 08:50:56;;;;;;;34.92;19.67;;;11.00;99.90;;;;;;5004611;28;20037;-83
2021/12/15 08:53:22;;;;;;;36.72;19.33;;;11.00;99.90;;;;;;5006434;28;20038;-83
2021/12/15 08:55:49;;;;;;;39.08;19.10;;;11.10;99.90;;;;;;5023821;28;20064;-83
2021/12/15 08:58:17;;;;;;;33.95;17.55;;;11.10;99.90;;;;;;5007655;28;20136;-82
2021/12/15 09:00:44;;;;;;;33.53;18.42;;;11.00;99.90;;;;;;5004323;28;20049;-83
2021/12/15 09:03:13;;;;;;;33.53;17.95;;;11.00;99.90;;;;;;5025072;28;20049;-83
2021/12/15 09:05:40;;;;;;;33.72;19.52;;;11.10;99.90;;;;;;5024520;28;20053;-83
2021/12/15 09:08:06;;;;;;;32.35;17.95;;;11.10;99.90;;;;;;5010544;28;20382;-83
2021/12/15 09:10:34;;;;;;;31.17;18.08;;;11.10;99.90;;;;;;5008007;28;20495;-83
2021/12/15 09:13:00;;;;;;;36.58;18.70;;;11.10;99.90;;;;;;5025209;28;20384;-83
2021/12/15 09:15:27;;;;;;;30.90;18.77;;;11.00;99.90;;;;;;5009131;28;20026;-83
2021/12/15 09:17:53;;;;;;;38.10;20.10;;;11.10;99.90;;;;;;5009239;28;20041;-83
2021/12/15 09:20:23;;;;;;;35.53;19.55;;;11.10;99.90;;;;;;5011563;28;22200;-83
2021/12/15 09:22:49;;;;;;;35.17;19.67;;;11.10;99.90;;;;;;5030063;28;20037;-83
2021/12/15 09:25:16;;;;;;;34.33;17.95;;;11.00;99.90;;;;;;5009703;28;20080;-83
2021/12/15 09:27:43;;;;;;;33.55;17.45;;;11.00;99.90;;;;;;5027508;28;20434;-83
2021/12/15 09:30:16;;;;;;;34.75;19.70;;;11.00;99.90;;;;;;5011143;28;20048;-83
2021/12/15 09:32:43;;;;;;;30.50;18.00;;;11.00;99.90;;;;;;5029023;28;20032;-83
2021/12/15 09:35:11;;;;;;;32.45;18.55;;;11.00;99.90;;;;;;5010348;28;20056;-84
2021/12/15 09:37:37;;;;;;;33.38;18.88;;;10.90;99.90;;;;;;5011346;28;20045;-84
2021/12/15 09:40:05;;;;;;;34.05;17.92;;;10.90;99.90;;;;;;5012283;28;20452;-83
2021/12/15 09:42:35;;;;;;;29.20;18.58;;;10.90;99.90;;;;;;5011082;28;20037;-83
2021/12/15 09:45:20;;;;;;;32.95;18.88;;;10.80;99.90;;;;;;5022665;28;20041;-82
2021/12/15 10:04:26;;;;;;;33.42;18.17;;;10.90;99.90;;;;;;5024547;28;20292;-83
2021/12/15 10:17:43;;;;;;;28.77;15.38;;;11.10;99.90;;;;;;5034693;28;20058;-83
2021/12/15 10:20:16;;;;;;;23.38;14.70;;;11.10;99.90;;;;;;5019112;28;20038;-83
2021/12/15 10:22:45;;;;;;;24.73;14.43;;;11.10;99.90;;;;;;5000968;28;20069;-83
2021/12/15 10:25:22;;;;;;;21.98;13.63;;;11.10;99.90;;;;;;5003412;28;20045;-83
2021/12/15 10:27:54;;;;;;;30.92;16.27;;;11.10;99.90;;;;;;5020440;28;20044;-83
2021/12/15 10:30:31;;;;;;;27.40;14.80;;;11.10;99.90;;;;;;5036160;28;20034;-83
2021/12/15 10:33:01;;;;;;;28.65;14.48;;;11.00;99.90;;;;;;5020845;28;20106;-83
2021/12/15 10:35:36;;;;;;;27.15;14.52;;;11.10;99.90;;;;;;4996577;28;20151;-83
2021/12/15 10:38:32;;;;;;;25.38;14.75;;;11.10;99.90;;;;;;5021064;28;20048;-83
2021/12/15 10:40:58;;;;;;;25.88;15.40;;;11.10;99.90;;;;;;5002473;28;20053;-83
2021/12/15 10:43:50;;;;;;;28.80;14.43;;;11.10;99.90;;;;;;5035779;28;20044;-83
2021/12/15 10:46:33;;;;;;;28.73;15.35;;;11.10;99.90;;;;;;5004508;28;20455;-83
2021/12/15 10:49:03;;;;;;;23.50;13.77;;;11.10;99.90;;;;;;5036240;28;20045;-83
2021/12/15 10:51:48;;;;;;;28.33;14.23;;;11.10;99.90;;;;;;5015249;28;20144;-83
2021/12/15 10:54:19;;;;;;;25.35;14.00;;;11.20;99.90;;;;;;5002171;28;20041;-83
2021/12/15 10:56:54;;;;;;;25.70;13.15;;;11.10;99.90;;;;;;5017361;28;20045;-83
2021/12/15 10:59:21;;;;;;;27.58;14.88;;;11.20;99.90;;;;;;5018398;28;20037;-83
2021/12/15 11:02:06;;;;;;;26.98;13.35;;;11.20;99.90;;;;;;5016137;28;20077;-84
2021/12/15 11:04:56;;;;;;;22.25;13.57;;;11.30;99.90;;;;;;5018913;28;20437;-84
2021/12/15 11:07:25;;;;;;;23.55;13.70;;;11.30;99.90;;;;;;5013317;28;20350;-83
2021/12/15 11:10:00;;;;;;;21.80;13.10;;;11.40;99.90;;;;;;5018989;28;20369;-83
2021/12/15 11:12:42;;;;;;;23.40;12.45;;;11.30;99.90;;;;;;5018761;28;20041;-83
2021/12/15 11:15:11;;;;;;;20.80;12.15;;;11.40;99.90;;;;;;5017822;28;20045;-83
2021/12/15 11:17:40;;;;;;;22.10;12.10;;;11.30;99.90;;;;;;5018975;28;20037;-83
2021/12/15 11:20:08;;;;;;;20.90;12.35;;;11.30;99.90;;;;;;4999435;28;20845;-83
2021/12/15 11:22:46;;;;;;;19.30;11.30;;;11.30;99.90;;;;;;5002624;28;20512;-83
2021/12/15 11:25:32;;;;;;;18.48;10.55;;;11.30;99.90;;;;;;5002877;28;20045;-83
2021/12/15 11:28:03;;;;;;;20.63;11.35;;;11.30;99.90;;;;;;5013770;28;20056;-83
2021/12/15 11:30:37;;;;;;;22.30;10.80;;;11.40;99.90;;;;;;5019052;28;20264;-83
2021/12/15 11:33:13;;;;;;;18.97;10.83;;;11.30;99.90;;;;;;5002458;28;20465;-83
2021/12/15 11:35:54;;;;;;;17.67;10.60;;;11.40;99.90;;;;;;4997573;28;20287;-83
2021/12/15 11:38:24;;;;;;;19.67;10.63;;;11.30;99.90;;;;;;5018169;28;20525;-83
2021/12/15 11:40:56;;;;;;;16.20;9.15;;;11.30;99.90;;;;;;4999981;28;20393;-83
2021/12/15 11:43:27;;;;;;;20.58;10.18;;;11.30;99.90;;;;;;5013803;28;20125;-83
2021/12/15 11:45:53;;;;;;;21.02;10.65;;;11.30;99.90;;;;;;5034753;28;20230;-83
2021/12/15 11:48:25;;;;;;;16.15;9.80;;;11.30;99.90;;;;;;4999826;28;20043;-83
2021/12/15 11:50:55;;;;;;;16.73;9.35;;;11.30;99.90;;;;;;5000549;28;20030;-83
2021/12/15 11:53:39;;;;;;;17.30;9.20;;;11.30;99.90;;;;;;5004726;28;20170;-83
2021/12/15 11:56:21;;;;;;;15.38;8.00;;;11.40;99.90;;;;;;5003125;28;20059;-83
2021/12/15 11:58:51;;;;;;;14.15;7.30;;;11.30;99.90;;;;;;5017853;28;20251;-84
2021/12/15 12:01:40;;;;;;;14.30;7.50;;;11.30;99.90;;;;;;5011462;28;20073;-83
2021/12/15 12:04:16;;;;;;;12.15;8.10;;;11.30;99.90;;;;;;5033947;28;20370;-84
2021/12/15 12:06:44;;;;;;;12.80;7.30;;;11.30;99.90;;;;;;4998720;28;20091;-83
2021/12/15 12:09:10;;;;;;;15.13;7.75;;;11.40;99.90;;;;;;5002049;28;20038;-84
2021/12/15 12:11:40;;;;;;;13.02;6.95;;;11.40;99.90;;;;;;5010196;28;20033;-83
2021/12/15 12:14:16;;;;;;;15.48;7.03;;;11.30;99.90;;;;;;5014585;28;20068;-83
2021/12/15 12:16:43;;;;;;;14.52;7.80;;;11.30;99.90;;;;;;5018795;28;20029;-83
2021/12/15 12:19:10;;;;;;;17.13;8.15;;;11.40;99.90;;;;;;5017112;28;20052;-83
2021/12/15 12:21:37;;;;;;;15.65;7.65;;;11.40;99.90;;;;;;5015085;28;20107;-83
2021/12/15 12:24:03;;;;;;;16.50;7.63;;;11.30;99.90;;;;;;5017256;28;20045;-84
2021/12/15 12:26:34;;;;;;;14.50;7.40;;;11.30;99.90;;;;;;4996477;28;20045;-83
2021/12/15 12:29:01;;;;;;;14.60;6.75;;;11.30;99.90;;;;;;5001819;28;20392;-84
2021/12/15 12:31:28;;;;;;;14.10;6.75;;;11.20;99.90;;;;;;5000563;28;20319;-83
2021/12/15 12:33:55;;;;;;;14.88;6.88;;;11.20;99.90;;;;;;5003031;28;20331;-83
2021/12/15 12:36:28;;;;;;;12.73;7.18;;;11.30;99.90;;;;;;4994852;28;20041;-83
2021/12/15 12:38:57;;;;;;;12.48;7.15;;;11.30;99.90;;;;;;5012583;28;20381;-83
2021/12/15 12:41:26;;;;;;;17.85;7.50;;;11.20;99.90;;;;;;5034846;28;20420;-83
2021/12/15 12:43:59;;;;;;;10.70;5.97;;;11.20;99.90;;;;;;5018233;28;20096;-83
2021/12/15 12:46:47;;;;;;;10.63;5.80;;;11.10;99.90;;;;;;5000828;28;20421;-83
2021/12/15 13:01:10;;;;;;;13.95;5.13;;;11.10;99.90;;;;;;5032094;28;20131;-83
2021/12/15 13:03:43;;;;;;;7.13;3.85;;;11.00;99.90;;;;;;5018762;28;20044;-84
2021/12/15 13:06:12;;;;;;;14.00;4.85;;;11.00;99.90;;;;;;4998552;28;20927;-83
2021/12/15 13:09:01;;;;;;;9.60;4.18;;;11.00;99.90;;;;;;5000583;28;20042;-83
2021/12/15 13:11:37;;;;;;;7.45;4.22;;;11.00;99.90;;;;;;5000663;28;20026;-83
2021/12/15 13:14:12;;;;;;;11.13;4.22;;;11.00;99.90;;;;;;4995809;28;20505;-83
2021/12/15 13:16:56;;;;;;;8.65;3.33;;;10.90;99.90;;;;;;4987352;28;20045;-83
2021/12/15 13:19:33;;;;;;;5.30;3.15;;;10.90;99.90;;;;;;4998167;28;20052;-83
2021/12/15 13:22:40;;;;;;;6.95;3.65;;;10.80;99.90;;;;;;5014763;28;20144;-83
2021/12/15 13:30:58;;;;;;;6.28;3.13;;;10.70;99.90;;;;;;5009898;28;20129;-84
2021/12/15 13:33:33;;;;;;;7.25;2.92;;;10.90;99.90;;;;;;5002597;28;20030;-83
2021/12/15 13:36:18;;;;;;;8.10;2.80;;;10.70;99.90;;;;;;4986774;28;20041;-83
2021/12/15 13:38:54;;;;;;;6.30;2.88;;;10.70;99.90;;;;;;4999054;28;20077;-83
2021/12/15 13:42:00;;;;;;;4.38;2.05;;;10.90;99.90;;;;;;5016683;28;20026;-83
2021/12/15 13:44:37;;;;;;;6.85;2.58;;;11.00;99.90;;;;;;5017172;28;20042;-83
2021/12/15 13:47:09;;;;;;;4.00;2.53;;;10.80;99.90;;;;;;5013387;28;20073;-83
2021/12/15 13:49:58;;;;;;;4.50;2.20;;;10.80;99.90;;;;;;5016937;28;20072;-83
2021/12/15 13:52:43;;;;;;;7.43;2.47;;;10.80;99.90;;;;;;5006067;28;20437;-83
2021/12/15 13:55:20;;;;;;;;;;;10.70;99.90;;;;;;5019378;28;20053;-83
2021/12/15 13:57:45;;;;;;;5.57;2.05;;;10.50;99.90;;;;;;5020845;28;19916;-83
2021/12/15 14:00:42;;;;;;;4.97;2.17;;;10.30;99.90;;;;;;5004326;28;20041;-84
2021/12/15 14:03:20;;;;;;;3.97;1.92;;;10.20;99.90;;;;;;5018847;28;20056;-83
2021/12/15 14:05:53;;;;;;;4.72;1.90;;;10.20;99.90;;;;;;5015822;28;20056;-83
2021/12/15 14:08:27;;;;;;;4.35;1.88;;;10.20;99.90;;;;;;5019959;28;20103;-82
2021/12/15 14:10:55;;;;;;;5.10;2.40;;;10.10;99.90;;;;;;5004508;28;20140;-83
2021/12/15 14:13:22;;;;;;;6.45;2.22;;;10.10;99.90;;;;;;5020365;28;20047;-83
2021/12/15 14:15:52;;;;;;;4.30;2.60;;;10.10;99.90;;;;;;5019882;28;20060;-83
2021/12/15 14:18:20;;;;;;;4.75;2.47;;;10.10;99.90;;;;;;5018342;28;20041;-83
2021/12/15 14:21:01;;;;;;;5.13;2.47;;;10.10;99.90;;;;;;5018416;28;20045;-84
2021/12/15 14:23:40;;;;;;;3.88;2.33;;;10.10;99.90;;;;;;5019274;28;20497;-83